Time;durP1;ratioP1;P1;durP2;ratioP2;P2;SDS_P1;SDS_P2;PMS_P1;PMS_P2;Temp;Humidity;BMP_temperature;BMP_pressure;BME280_temperature;BME280_humidity;BME280_pressure;Samples;Min_cycle;Max_cycle;Signal;HPM_P1;HPM_P2
2023/04/11 00:01:11;;;;;;;8.70;2.33;;;9.90;99.90;;;;;;5014640;28;20052;-67
2023/04/11 00:03:37;;;;;;;11.45;2.33;;;10.00;99.90;;;;;;5014549;28;20124;-68
2023/04/11 00:06:03;;;;;;;12.50;2.35;;;10.00;99.90;;;;;;4998033;28;20034;-67
2023/04/11 00:08:30;;;;;;;13.55;2.70;;;;;;;;;;5014340;28;20079;-68
2023/04/11 00:10:55;;;;;;;13.90;3.05;;;9.90;99.90;;;;;;5014690;28;20111;-69
2023/04/11 00:13:22;;;;;;;12.43;2.60;;;9.80;99.90;;;;;;5014796;28;20509;-68
2023/04/11 00:15:52;;;;;;;10.98;2.67;;;9.80;99.90;;;;;;5014316;28;20091;-67
2023/04/11 00:18:18;;;;;;;11.57;2.90;;;10.00;99.90;;;;;;5014586;28;20414;-67
2023/04/11 00:20:44;;;;;;;21.88;3.75;;;10.70;99.90;;;;;;5014349;28;20057;-67
2023/04/11 00:23:09;;;;;;;27.70;4.35;;;9.90;99.90;;;;;;5014277;28;20033;-67
2023/04/11 00:25:36;;;;;;;25.92;4.28;;;9.60;99.90;;;;;;5014318;28;20124;-67
2023/04/11 00:28:01;;;;;;;17.30;3.15;;;10.20;99.90;;;;;;5014216;28;20076;-67
2023/04/11 00:30:27;;;;;;;21.02;3.85;;;9.60;99.90;;;;;;5013246;28;20123;-67
2023/04/11 00:32:52;;;;;;;14.95;3.65;;;9.60;99.90;;;;;;5014254;28;20049;-68
2023/04/11 00:35:18;;;;;;;14.68;3.25;;;9.70;99.90;;;;;;5014143;28;20041;-67
2023/04/11 00:37:44;;;;;;;23.23;4.80;;;9.50;99.90;;;;;;5013830;28;20041;-67
2023/04/11 00:40:12;;;;;;;18.08;3.60;;;9.50;99.90;;;;;;5013882;28;20041;-67
2023/04/11 00:42:41;;;;;;;17.73;3.53;;;;;;;;;;5031849;28;20060;-67
2023/04/11 00:45:07;;;;;;;16.80;2.97;;;;;;;;;;5014295;28;20083;-68
2023/04/11 00:47:34;;;;;;;11.82;2.45;;;;;;;;;;4997724;28;20033;-67
2023/04/11 00:50:00;;;;;;;18.00;2.30;;;;;;;;;;5013827;28;20041;-68
2023/04/11 00:52:26;;;;;;;8.40;2.20;;;;;;;;;;4997629;28;20532;-67
2023/04/11 00:54:52;;;;;;;10.63;2.42;;;;;;;;;;4997521;28;20053;-67
2023/04/11 00:57:18;;;;;;;12.23;3.42;;;;;;;;;;5031397;28;20042;-67
2023/04/11 00:59:49;;;;;;;12.15;2.33;;;;;;;;;;4997700;28;20095;-67
2023/04/11 01:02:17;;;;;;;8.93;1.80;;;;;;;;;;5014086;28;20453;-67
2023/04/11 01:04:43;;;;;;;13.27;2.45;;;;;;;;;;5031119;28;20049;-67
2023/04/11 01:07:10;;;;;;;7.10;1.60;;;;;;;;;;5013074;28;20037;-67
2023/04/11 01:09:38;;;;;;;10.27;1.70;;;;;;;;;;5013769;28;20048;-67
2023/04/11 01:12:05;;;;;;;11.57;1.85;;;;;;;;;;4997041;28;20045;-67
2023/04/11 01:14:31;;;;;;;11.05;2.28;;;;;;;;;;5013791;28;20057;-68
2023/04/11 01:16:57;;;;;;;8.15;1.70;;;;;;;;;;5013588;28;20037;-67
2023/04/11 01:19:24;;;;;;;7.53;1.63;;;;;;;;;;5013829;28;20544;-67
2023/04/11 01:21:52;;;;;;;9.73;1.60;;;;;;;;;;5013673;28;20049;-68
2023/04/11 01:24:18;;;;;;;4.60;1.23;;;;;;;;;;5013669;28;20037;-67
2023/04/11 01:26:44;;;;;;;5.03;0.88;;;;;;;;;;5013546;28;20041;-67
2023/04/11 01:29:10;;;;;;;3.30;0.73;;;;;;;;;;4997187;28;20044;-66
2023/04/11 01:31:36;;;;;;;4.40;0.85;;;;;;;;;;5013320;28;20107;-68
2023/04/11 01:34:03;;;;;;;2.88;0.90;;;;;;;;;;5013360;28;20046;-67
2023/04/11 01:36:31;;;;;;;0.95;0.63;;;;;;;;;;5013336;28;20041;-67
2023/04/11 01:38:57;;;;;;;4.35;0.85;;;;;;;;;;5013384;28;20049;-67
2023/04/11 01:41:25;;;;;;;3.55;0.75;;;;;;;;;;5032136;28;20081;-67
2023/04/11 01:43:51;;;;;;;3.30;0.82;;;;;;;;;;5017256;28;20477;-67
2023/04/11 01:46:17;;;;;;;6.57;0.90;;;;;;;;;;5017108;28;20454;-67
2023/04/11 01:48:44;;;;;;;3.58;1.00;;;;;;;;;;5017403;28;20080;-67
2023/04/11 01:51:10;;;;;;;4.07;1.02;;;;;;;;;;5017075;28;20048;-68
2023/04/11 01:53:36;;;;;;;4.47;1.10;;;;;;;;;;5017066;28;20049;-67
2023/04/11 01:56:02;;;;;;;2.90;0.68;;;;;;;;;;5016966;28;20420;-67
2023/04/11 01:58:28;;;;;;;3.35;0.90;;;;;;;;;;5017029;28;20038;-67
2023/04/11 02:00:54;;;;;;;5.03;1.02;;;;;;;;;;5016991;28;20095;-67
2023/04/11 02:03:21;;;;;;;7.40;1.23;;;;;;;;;;5016952;28;20052;-67
2023/04/11 02:05:47;;;;;;;4.72;1.20;;;;;;;;;;5016752;28;20425;-67
2023/04/11 02:08:13;;;;;;;4.80;1.00;;;;;;;;;;5016868;28;20056;-67
2023/04/11 02:10:39;;;;;;;4.10;1.20;;;;;;;;;;5034545;28;20042;-67
2023/04/11 02:13:05;;;;;;;5.57;1.17;;;;;;;;;;5000701;28;20050;-68
2023/04/11 02:15:31;;;;;;;6.05;0.90;;;;;;;;;;5016822;28;20152;-67
2023/04/11 02:17:59;;;;;;;3.40;0.75;;;;;;;;;;5016690;28;20496;-67
2023/04/11 02:20:25;;;;;;;5.40;1.00;;;;;;;;;;5016854;28;20045;-67
2023/04/11 02:22:51;;;;;;;4.75;0.88;;;;;;;;;;5016556;28;20409;-67
2023/04/11 02:25:17;;;;;;;4.75;0.88;;;;;;;;;;5016803;28;20041;-67
2023/04/11 02:27:43;;;;;;;5.18;1.35;;;;;;;;;;5016502;28;20130;-68
2023/04/11 02:30:09;;;;;;;3.72;1.20;;;;;;;;;;5016371;28;20134;-67
2023/04/11 02:32:36;;;;;;;6.20;1.30;;;;;;;;;;5016798;28;20091;-67
2023/04/11 02:35:03;;;;;;;5.18;1.50;;;;;;;;;;5016329;28;20505;-67
2023/04/11 02:37:30;;;;;;;11.45;1.70;;;;;;;;;;5016261;28;20505;-68
2023/04/11 02:39:57;;;;;;;5.68;1.08;;;;;;;;;;5016433;28;20460;-67
2023/04/11 02:42:23;;;;;;;9.82;1.42;;;;;;;;;;5033979;28;20088;-67
2023/04/11 02:44:49;;;;;;;3.30;1.23;;;;;;;;;;5016118;28;20537;-67
2023/04/11 02:47:15;;;;;;;8.95;1.30;;;;;;;;;;5016277;28;20607;-67
2023/04/11 02:49:41;;;;;;;3.67;1.40;;;;;;;;;;4999829;28;20037;-67
2023/04/11 02:52:07;;;;;;;2.70;1.23;;;;;;;;;;5016040;28;20045;-67
2023/04/11 02:54:33;;;;;;;3.60;1.20;;;;;;;;;;4999006;28;20095;-67
2023/04/11 02:57:00;;;;;;;6.32;1.52;;;;;;;;;;5016057;28;20041;-67
2023/04/11 02:59:26;;;;;;;8.05;1.17;;;;;;;;;;5015817;28;20497;-67
2023/04/11 03:01:59;;;;;;;8.10;1.80;;;;;;;;;;5016068;28;20394;-67
2023/04/11 03:04:25;;;;;;;7.65;1.27;;;;;;;;;;5015765;28;20041;-67
2023/04/11 03:06:51;;;;;;;5.18;1.70;;;;;;;;;;5015839;28;20037;-67
2023/04/11 03:09:17;;;;;;;4.50;1.30;;;;;;;;;;4999391;28;20048;-67
2023/04/11 03:11:44;;;;;;;9.55;1.70;;;;;;;;;;4999248;28;20409;-68
2023/04/11 03:14:10;;;;;;;9.95;1.88;;;;;;;;;;5015716;28;20037;-67
2023/04/11 03:16:35;;;;;;;12.43;2.08;;;;;;;;;;5015818;28;20038;-67
2023/04/11 03:19:01;;;;;;;5.47;1.70;;;;;;;;;;5015657;28;20073;-67
2023/04/11 03:21:27;;;;;;;7.53;1.80;;;;;;;;;;5015767;28;20047;-67
2023/04/11 03:23:53;;;;;;;15.05;2.53;;;;;;;;;;5015399;28;20041;-67
2023/04/11 03:26:20;;;;;;;16.73;2.28;;;;;;;;;;5015304;28;20041;-67
2023/04/11 03:28:46;;;;;;;9.70;2.03;;;;;;;;;;5015524;28;20461;-66
2023/04/11 03:31:12;;;;;;;9.13;2.03;;;;;;;;;;5015718;28;20056;-66
2023/04/11 03:33:39;;;;;;;8.13;2.30;;;;;;;;;;5015656;28;20540;-66
2023/04/11 03:36:05;;;;;;;10.00;2.75;;;;;;;;;;5015156;28;20048;-67
2023/04/11 03:38:31;;;;;;;16.55;2.08;;;;;;;;;;5015143;28;20045;-67
2023/04/11 03:40:57;;;;;;;10.18;2.28;;;;;;;;;;5015103;28;20535;-67
2023/04/11 03:43:23;;;;;;;10.05;2.53;;;;;;;;;;5015086;28;20083;-67
2023/04/11 03:45:50;;;;;;;19.65;5.18;;;;;;;;;;5014992;28;20528;-67
2023/04/11 03:48:16;;;;;;;12.90;1.92;;;;;;;;;;5014984;28;20049;-67
2023/04/11 03:50:42;;;;;;;14.65;2.70;;;;;;;;;;5014904;28;20529;-67
2023/04/11 03:53:08;;;;;;;14.82;3.28;;;;;;;;;;5015106;28;20037;-67
2023/04/11 03:55:34;;;;;;;15.65;2.45;;;;;;;;;;5032547;28;20047;-67
2023/04/11 03:58:00;;;;;;;7.93;2.20;;;;;;;;;;5014641;28;20124;-67
2023/04/11 04:00:27;;;;;;;14.13;2.80;;;;;;;;;;5014846;28;20033;-66
2023/04/11 04:02:53;;;;;;;10.82;3.53;;;;;;;;;;5014723;28;20052;-67
2023/04/11 04:05:19;;;;;;;9.27;2.80;;;;;;;;;;5014619;28;20034;-67
2023/04/11 04:07:45;;;;;;;8.35;2.22;;;;;;;;;;4998136;28;20033;-68
2023/04/11 04:10:11;;;;;;;9.77;2.60;;;;;;;;;;5014465;28;20040;-68
2023/04/11 04:12:37;;;;;;;11.85;2.15;;;;;;;;;;4998225;28;20042;-67
2023/04/11 04:15:03;;;;;;;9.15;3.25;;;;;;;;;;5014532;28;20041;-67
2023/04/11 04:17:29;;;;;;;9.38;3.00;;;;;;;;;;5014415;28;20043;-68
2023/04/11 04:19:55;;;;;;;10.23;2.50;;;;;;;;;;5014556;28;20137;-67
2023/04/11 04:22:22;;;;;;;7.50;1.92;;;;;;;;;;5014366;28;20077;-68
2023/04/11 04:24:48;;;;;;;10.55;2.40;;;;;;;;;;5014398;28;20640;-67
2023/04/11 04:27:18;;;;;;;9.45;2.13;;;;;;;;;;5014303;28;20049;-68
2023/04/11 04:29:47;;;;;;;9.75;2.00;;;;;;;;;;5014488;28;20439;-68
2023/04/11 04:32:19;;;;;;;9.13;2.30;;;;;;;;;;5013971;28;20038;-67
2023/04/11 04:34:48;;;;;;;8.63;2.83;;;;;;;;;;5014319;28;20042;-68
2023/04/11 04:37:23;;;;;;;14.43;2.30;;;;;;;;;;5013852;28;20074;-68
2023/04/11 04:39:52;;;;;;;12.43;2.65;;;;;;;;;;5014261;28;20095;-67
2023/04/11 04:42:18;;;;;;;8.50;2.35;;;;;;;;;;5014148;28;20048;-67
2023/04/11 04:44:44;;;;;;;7.85;2.45;;;;;;;;;;5013841;28;20045;-68
2023/04/11 04:47:10;;;;;;;10.15;2.22;;;;;;;;;;5013926;28;20413;-67
2023/04/11 04:49:37;;;;;;;11.65;2.88;;;;;;;;;;5014202;28;20041;-67
2023/04/11 04:52:03;;;;;;;15.77;2.83;;;;;;;;;;5013712;28;20058;-68
2023/04/11 04:54:30;;;;;;;9.05;2.35;;;;;;;;;;5013905;28;20496;-67
2023/04/11 04:56:56;;;;;;;7.97;2.28;;;;;;;;;;4997380;28;20689;-68
2023/04/11 04:59:22;;;;;;;17.30;3.35;;;;;;;;;;5013812;28;20049;-67
2023/04/11 05:01:50;;;;;;;6.85;1.70;;;;;;;;;;5013762;28;20429;-68
2023/04/11 05:04:16;;;;;;;16.80;3.03;;;;;;;;;;4997373;28;20128;-67
2023/04/11 05:06:42;;;;;;;14.02;2.60;;;;;;;;;;5013490;28;20171;-68
2023/04/11 05:09:08;;;;;;;16.38;2.28;;;;;;;;;;5013623;28;20045;-68
2023/04/11 05:11:34;;;;;;;12.23;2.70;;;;;;;;;;5013672;28;20111;-67
2023/04/11 05:14:01;;;;;;;9.85;2.40;;;;;;;;;;5013998;28;20551;-67
2023/04/11 05:16:27;;;;;;;10.45;2.47;;;;;;;;;;5016595;28;20120;-67
2023/04/11 05:18:53;;;;;;;12.00;2.92;;;;;;;;;;5037887;28;20080;-67
2023/04/11 05:21:19;;;;;;;13.70;2.90;;;;;;;;;;5020069;28;20076;-67
2023/04/11 05:23:45;;;;;;;11.57;2.40;;;;;;;;;;5020037;28;20454;-68
2023/04/11 05:26:11;;;;;;;11.02;2.65;;;;;;;;;;5037813;28;20090;-67
2023/04/11 05:28:37;;;;;;;9.73;2.33;;;;;;;;;;5020165;28;20507;-67
2023/04/11 05:31:03;;;;;;;19.00;2.75;;;;;;;;;;5003572;28;20045;-68
2023/04/11 05:33:29;;;;;;;12.25;3.20;;;;;;;;;;5020038;28;20041;-67
2023/04/11 05:35:55;;;;;;;18.73;2.83;;;;;;;;;;5003759;28;20417;-67
2023/04/11 05:38:21;;;;;;;9.55;2.25;;;;;;;;;;5003803;28;20049;-67
2023/04/11 05:40:47;;;;;;;7.80;2.25;;;;;;;;;;5020234;28;20041;-66
2023/04/11 05:43:14;;;;;;;7.15;2.78;;;;;;;;;;5020081;28;20045;-67
2023/04/11 05:45:46;;;;;;;12.38;2.60;;;;;;;;;;5020038;28;20129;-67
2023/04/11 05:48:18;;;;;;;6.73;2.27;;;;;;;;;;5020364;28;20092;-67
2023/04/11 05:50:44;;;;;;;13.38;2.15;;;;;;;;;;5020035;28;20394;-67
2023/04/11 05:53:10;;;;;;;20.35;2.38;;;;;;;;;;5019934;28;20091;-67
2023/04/11 05:55:36;;;;;;;14.75;2.55;;;;;;;;;;5003524;28;20037;-68
2023/04/11 05:58:03;;;;;;;9.45;2.60;;;;;;;;;;5016013;28;20042;-67
2023/04/11 06:00:31;;;;;;;9.32;2.35;;;;;;;;;;5016346;28;20522;-68
2023/04/11 06:02:57;;;;;;;16.77;2.33;;;;;;;;;;4998535;28;20516;-68
2023/04/11 06:05:24;;;;;;;15.00;3.13;;;;;;;;;;5016398;28;20049;-67
2023/04/11 06:07:50;;;;;;;10.25;2.83;;;;;;;;;;5019799;28;20056;-67
2023/04/11 06:10:16;;;;;;;7.13;2.30;;;;;;;;;;5027374;28;20041;-68
2023/04/11 06:12:42;;;;;;;15.07;2.95;;;;;;;;;;5000795;28;20049;-66
2023/04/11 06:15:10;;;;;;;8.57;2.38;;;;;;;;;;5022369;28;20068;-67
2023/04/11 06:17:37;;;;;;;13.68;3.17;;;;;;;;;;5012370;28;20080;-67
2023/04/11 06:20:04;;;;;;;14.02;2.45;;;;;;;;;;5015779;28;20041;-67
2023/04/11 06:22:30;;;;;;;16.17;3.60;;;;;;;;;;5038748;28;20073;-67
2023/04/11 06:24:56;;;;;;;16.73;4.30;;;;;;;;;;5015981;28;20048;-67
2023/04/11 06:27:22;;;;;;;14.48;2.42;;;;;;;;;;5014532;28;20085;-67
2023/04/11 06:29:48;;;;;;;18.05;3.30;;;;;;;;;;5011542;28;20070;-67
2023/04/11 06:32:15;;;;;;;17.55;4.32;;;;;;;;;;5026213;28;20045;-67
2023/04/11 06:34:41;;;;;;;11.43;2.60;;;;;;;;;;5012528;28;20033;-67
2023/04/11 06:37:07;;;;;;;17.17;2.92;;;;;;;;;;4987857;28;20532;-66
2023/04/11 06:39:34;;;;;;;14.90;2.80;;;;;;;;;;5023274;28;20132;-66
2023/04/11 06:42:00;;;;;;;10.07;2.13;;;;;;;;;;5006926;28;20041;-66
2023/04/11 06:44:26;;;;;;;16.35;2.72;;;;;;;;;;5022137;28;20059;-66
2023/04/11 06:46:52;;;;;;;15.35;2.60;;;;;;;;;;5016103;28;20089;-66
2023/04/11 06:49:18;;;;;;;15.05;3.33;;;;;;;;;;5006608;28;20060;-66
2023/04/11 06:51:49;;;;;;;18.52;3.85;;;;;;;;;;5016944;28;20038;-66
2023/04/11 06:54:15;;;;;;;11.82;3.03;;;;;;;;;;5023795;28;20083;-66
2023/04/11 06:56:41;;;;;;;16.20;2.75;;;;;;;;;;5013712;28;20041;-66
2023/04/11 06:59:07;;;;;;;14.95;2.90;;;;;;;;;;5014112;28;20547;-66
2023/04/11 07:01:36;;;;;;;15.80;3.63;;;;;;;;;;5021966;28;20458;-66
2023/04/11 07:04:02;;;;;;;11.27;2.67;;;;;;;;;;5028887;28;20065;-66
2023/04/11 07:06:29;;;;;;;16.30;2.95;;;;;;;;;;5023826;28;20047;-69
2023/04/11 07:08:55;;;;;;;25.90;5.22;;;;;;;;;;5021286;28;20045;-66
2023/04/11 07:11:22;;;;;;;8.48;2.25;;;;;;;;;;5018874;28;20056;-67
2023/04/11 07:13:49;;;;;;;13.77;2.83;;;;;;;;;;4996387;28;20048;-67
2023/04/11 07:16:15;;;;;;;16.02;2.97;;;;;;;;;;5025075;28;20133;-67
2023/04/11 07:18:41;;;;;;;8.45;2.60;;;;;;;;;;5010162;28;20412;-67
2023/04/11 07:21:11;;;;;;;22.98;4.35;;;;;;;;;;5017856;28;20049;-68
2023/04/11 07:23:37;;;;;;;19.35;4.80;;;;;;;;;;5013789;28;20045;-67
2023/04/11 07:26:03;;;;;;;12.15;2.65;;;;;;;;;;5020436;28;20055;-66
2023/04/11 07:28:30;;;;;;;17.10;2.88;;;;;;;;;;5020218;28;20079;-67
2023/04/11 07:30:56;;;;;;;18.23;2.97;;;;;;;;;;5035550;28;20057;-67
2023/04/11 07:33:22;;;;;;;12.93;2.67;;;;;;;;;;5008111;28;20517;-67
2023/04/11 07:35:48;;;;;;;9.50;2.20;;;;;;;;;;5009051;28;20037;-68
2023/04/11 07:38:28;;;;;;;11.50;3.00;;;;;;;;;;5012861;28;20041;-68
2023/04/11 07:40:58;;;;;;;8.75;2.28;;;;;;;;;;5011198;28;20044;-67
2023/04/11 07:43:25;;;;;;;20.25;2.60;;;;;;;;;;5009783;28;20036;-67
2023/04/11 07:45:51;;;;;;;14.05;4.78;;;;;;;;;;5013425;28;20041;-66
2023/04/11 07:48:17;;;;;;;8.40;2.03;;;;;;;;;;5013027;28;20045;-67
2023/04/11 07:50:43;;;;;;;6.90;1.77;;;;;;;;;;5013831;28;20408;-67
2023/04/11 07:53:09;;;;;;;12.82;3.13;;;;;;;;;;5012511;28;20041;-67
2023/04/11 07:55:36;;;;;;;8.65;2.15;;;;;;;;;;4995375;28;20036;-67
2023/04/11 07:58:03;;;;;;;8.48;2.42;;;;;;;;;;5010609;28;20046;-67
2023/04/11 08:00:31;;;;;;;16.67;2.83;;;;;;;;;;5013831;28;20033;-67
2023/04/11 08:03:01;;;;;;;10.93;1.90;;;;;;;;;;5013736;28;20211;-67
2023/04/11 08:05:27;;;;;;;13.88;2.22;;;;;;;;;;5012998;28;20501;-67
2023/04/11 08:07:53;;;;;;;21.20;2.58;;;;;;;;;;5012664;28;20033;-67
2023/04/11 08:10:19;;;;;;;10.43;3.17;;;;;;;;;;4996719;28;20069;-67
2023/04/11 08:12:45;;;;;;;8.27;2.25;;;;;;;;;;5012924;28;20084;-68
2023/04/11 08:15:11;;;;;;;6.50;1.90;;;;;;;;;;4998554;28;20065;-67
2023/04/11 08:17:39;;;;;;;10.45;1.77;;;;;;;;;;5014612;28;20052;-67
2023/04/11 08:20:12;;;;;;;10.48;2.13;;;;;;;;;;5014830;28;20099;-67
2023/04/11 08:22:38;;;;;;;11.70;3.05;;;;;;;;;;5015269;28;20056;-67
2023/04/11 08:25:06;;;;;;;8.05;2.00;;;;;;;;;;5014670;28;20136;-67
2023/04/11 08:27:32;;;;;;;5.38;2.00;;;;;;;;;;5014051;28;20080;-67
2023/04/11 08:29:58;;;;;;;8.88;2.55;;;;;;;;;;5014163;28;20409;-67
2023/04/11 08:32:25;;;;;;;9.27;2.72;;;;;;;;;;5013882;28;20041;-67
2023/04/11 08:34:51;;;;;;;9.43;2.17;;;;;;;;;;5012651;28;20405;-67
2023/04/11 08:37:16;;;;;;;15.50;2.60;;;;;;;;;;5013711;28;20048;-67
2023/04/11 08:39:42;;;;;;;10.48;2.30;;;;;;;;;;5014225;28;20041;-67
2023/04/11 08:42:24;;;;;;;9.10;1.55;;;;;;;;;;5013971;28;20041;-67
2023/04/11 08:44:55;;;;;;;12.65;2.20;;;;;;;;;;5014144;28;20073;-67
2023/04/11 08:47:21;;;;;;;8.48;2.17;;;;;;;;;;4997605;28;20095;-67
2023/04/11 08:49:47;;;;;;;11.60;2.25;;;;;;;;;;5013947;28;20037;-67
2023/04/11 08:52:13;;;;;;;20.02;2.97;;;;;;;;;;5013177;28;20444;-67
2023/04/11 08:54:40;;;;;;;10.73;2.08;;;;;;;;;;5031838;28;20664;-68
2023/04/11 08:57:05;;;;;;;16.58;3.40;;;;;;;;;;5014155;28;20601;-67
2023/04/11 08:59:35;;;;;;;9.25;2.00;;;;;;;;;;5014010;28;20075;-67
2023/04/11 09:02:10;;;;;;;13.20;2.55;;;;;;;;;;5013322;28;20095;-67
2023/04/11 09:04:40;;;;;;;10.15;2.45;;;;;;;;;;5031669;28;20038;-67
2023/04/11 09:07:06;;;;;;;31.50;3.88;;;;;;;;;;5013799;28;20120;-67
2023/04/11 09:09:33;;;;;;;8.25;2.55;;;;;;;;;;5012869;28;20033;-67
2023/04/11 09:12:00;;;;;;;16.17;2.92;;;;;;;;;;5013401;28;20517;-68
2023/04/11 09:14:26;;;;;;;9.60;2.08;;;;;;;;;;5013802;28;20041;-68
2023/04/11 09:16:57;;;;;;;8.55;2.50;;;;;;;;;;5013813;28;20041;-68
2023/04/11 09:19:24;;;;;;;12.50;2.47;;;;;;;;;;5013803;28;20049;-68
2023/04/11 09:21:50;;;;;;;16.30;2.28;;;;;;;;;;5013738;28;20549;-68
2023/04/11 09:24:17;;;;;;;13.55;2.40;;;;;;;;;;5013876;28;20060;-68
2023/04/11 09:26:43;;;;;;;8.73;1.88;;;;;;;;;;5013342;28;20049;-69
2023/04/11 09:29:09;;;;;;;11.38;1.77;;;;;;;;;;5013677;28;20064;-68
2023/04/11 09:31:39;;;;;;;12.50;2.03;;;;;;;;;;5064892;23;20131;-69
2023/04/11 09:34:06;;;;;;;8.60;1.98;;;;;;;;;;5073004;28;20048;-68
2023/04/11 09:36:31;;;;;;;11.82;2.45;;;;;;;;;;5091384;28;20196;-69
2023/04/11 09:38:58;;;;;;;13.80;2.97;;;;;;;;;;5091111;28;20119;-69
2023/04/11 09:41:30;;;;;;;15.73;2.45;;;;;;;;;;5072830;28;20040;-69
2023/04/11 09:43:56;;;;;;;12.93;2.95;;;;;;;;;;5090827;28;20074;-69
2023/04/11 09:46:22;;;;;;;8.35;2.53;;;;;;;;;;5073151;28;20040;-69
2023/04/11 09:48:48;;;;;;;16.30;3.00;;;;;;;;;;5091123;28;20422;-69
2023/04/11 09:51:15;;;;;;;15.70;2.10;;;;;;;;;;5090268;28;20075;-69
2023/04/11 09:53:41;;;;;;;11.85;2.50;;;;;;;;;;5072857;28;20082;-69
2023/04/11 09:56:08;;;;;;;12.65;3.33;;;;;;;;;;5072942;28;20522;-69
2023/04/11 09:58:35;;;;;;;12.32;2.92;;;;;;;;;;5072958;28;20081;-69
2023/04/11 10:01:01;;;;;;;7.68;2.17;;;;;;;;;;5072404;28;20036;-69
2023/04/11 10:03:29;;;;;;;11.88;2.60;;;;;;;;;;5063923;28;20052;-69
2023/04/11 10:05:56;;;;;;;11.65;1.90;;;;;;;;;;5082207;28;20047;-68
2023/04/11 10:08:31;;;;;;;7.55;1.75;;;;;;;;;;5076590;28;20044;-69
2023/04/11 10:10:58;;;;;;;5.25;1.50;;;;;;;;;;5094673;28;20052;-69
2023/04/11 10:13:41;;;;;;;2.20;1.15;;;;;;;;;;5076353;28;20055;-69
2023/04/11 10:16:14;;;;;;;6.70;1.27;;;;;;;;;;5076394;28;20044;-69
2023/04/11 10:18:52;;;;;;;3.90;1.00;;;;;;;;;;5076307;28;20373;-69
2023/04/11 10:21:34;;;;;;;8.50;1.55;;;;;;;;;;5076628;28;20040;-68
2023/04/11 10:24:20;;;;;;;5.30;1.45;;;;;;;;;;5076351;28;20036;-68
2023/04/11 10:27:02;;;;;;;10.25;3.08;;;;;;;;;;5075497;28;20057;-68
2023/04/11 10:29:39;;;;;;;8.60;1.83;;;;;;;;;;5093562;28;20495;-69
2023/04/11 10:32:22;;;;;;;12.80;2.60;;;;;;;;;;5093881;28;20503;-68
2023/04/11 10:34:54;;;;;;;9.20;3.20;;;;;;;;;;5076052;28;20155;-70
2023/04/11 10:37:29;;;;;;;11.20;2.13;;;;;;;;;;5074447;28;20048;-68
2023/04/11 10:40:08;;;;;;;7.50;1.92;;;;;;;;;;5093058;28;20523;-68
2023/04/11 10:42:37;;;;;;;8.18;1.65;;;;;;;;;;5071138;28;20050;-70
2023/04/11 10:45:22;;;;;;;11.68;2.17;;;;;;;;;;5051223;28;20039;-68
2023/04/11 10:47:51;;;;;;;11.05;2.30;;;8.70;99.90;;;;;;5053733;28;20044;-70
2023/04/11 10:50:22;;;;;;;6.50;1.70;;;8.60;99.90;;;;;;5071265;28;20089;-69
2023/04/11 10:52:48;;;;;;;6.85;2.35;;;;;;;;;;5071678;28;20033;-69
2023/04/11 10:55:18;;;;;;;12.85;2.55;;;;;;;;;;5071966;28;20040;-70
2023/04/11 10:58:06;;;;;;;7.97;1.42;;;8.00;99.90;;;;;;5071790;28;20043;-69
2023/04/11 11:00:50;;;;;;;5.47;1.58;;;8.40;99.90;;;;;;5071850;28;20355;-69
2023/04/11 11:03:20;;;;;;;9.18;2.08;;;;;;;;;;5071160;28;20047;-70
2023/04/11 11:06:07;;;;;;;13.50;2.47;;;8.80;99.90;;;;;;5085175;28;20032;-70
2023/04/11 11:08:36;;;;;;;14.57;3.30;;;8.80;99.90;;;;;;5077876;28;20048;-69
2023/04/11 11:11:07;;;;;;;12.77;2.50;;;8.70;99.90;;;;;;5072973;28;20036;-68
2023/04/11 11:13:51;;;;;;;7.28;2.00;;;8.70;99.90;;;;;;5073051;28;20436;-69
2023/04/11 11:16:16;;;;;;;7.20;1.98;;;8.80;99.90;;;;;;5074088;28;20043;-69
2023/04/11 11:18:57;;;;;;;11.43;2.75;;;8.60;99.90;;;;;;5074070;28;20039;-67
2023/04/11 11:21:26;;;;;;;9.15;1.55;;;8.70;99.90;;;;;;5057536;28;20092;-69
2023/04/11 11:24:00;;;;;;;12.48;2.28;;;8.70;99.90;;;;;;5074961;28;20044;-69
2023/04/11 11:26:42;;;;;;;5.25;1.73;;;9.00;99.90;;;;;;5073789;28;20051;-69
2023/04/11 11:29:09;;;;;;;17.15;2.70;;;;;;;;;;5092759;28;20145;-70
2023/04/11 11:31:40;;;;;;;12.48;2.88;;;9.40;99.90;;;;;;5073239;28;20462;-69
2023/04/11 11:34:06;;;;;;;13.25;3.33;;;;;;;;;;5074474;28;20491;-70
2023/04/11 11:36:38;;;;;;;14.02;2.45;;;9.60;99.90;;;;;;5057415;28;20079;-69
2023/04/11 11:39:05;;;;;;;10.85;2.25;;;;;;;;;;5073471;28;20443;-70
2023/04/11 11:41:33;;;;;;;16.23;2.50;;;;;;;;;;5057303;28;20522;-69
2023/04/11 11:44:00;;;;;;;11.85;2.70;;;9.90;99.90;;;;;;5072704;28;20044;-70
2023/04/11 11:46:29;;;;;;;13.70;2.45;;;;;;;;;;5057381;28;20080;-70
2023/04/11 11:49:07;;;;;;;13.50;4.28;;;10.60;99.90;;;;;;5073313;28;20303;-69
2023/04/11 11:51:45;;;;;;;12.20;2.53;;;10.70;99.90;;;;;;5073359;28;20111;-70
2023/04/11 11:54:11;;;;;;;15.25;2.47;;;10.40;99.90;;;;;;5073677;28;20044;-70
2023/04/11 11:56:38;;;;;;;10.32;2.80;;;;;;;;;;5056028;28;20043;-70
2023/04/11 11:59:04;;;;;;;16.08;2.30;;;10.50;99.90;;;;;;5073872;28;20118;-70
2023/04/11 12:01:34;;;;;;;12.80;2.47;;;10.40;99.90;;;;;;5091116;28;20032;-69
2023/04/11 12:04:00;;;;;;;11.55;2.22;;;10.80;99.90;;;;;;5073871;28;20123;-69
2023/04/11 12:06:32;;;;;;;14.52;2.80;;;10.90;99.90;;;;;;5073064;28;20499;-69
2023/04/11 12:09:08;;;;;;;11.90;2.53;;;10.80;99.90;;;;;;5072589;28;20051;-70
2023/04/11 12:11:41;;;;;;;15.20;3.42;;;10.50;99.90;;;;;;5073037;28;20502;-70
2023/04/11 12:14:07;;;;;;;10.20;2.03;;;10.80;99.90;;;;;;5072340;28;20072;-70
2023/04/11 12:16:34;;;;;;;11.52;2.50;;;;;;;;;;5073121;28;20032;-69
2023/04/11 12:19:02;;;;;;;12.93;2.60;;;10.40;99.90;;;;;;5091138;28;20529;-71
2023/04/11 12:21:28;;;;;;;12.13;2.20;;;;;;;;;;5073370;28;20046;-69
2023/04/11 12:23:54;;;;;;;15.45;2.10;;;;;;;;;;5073981;28;20043;-69
2023/04/11 12:26:20;;;;;;;13.63;3.00;;;;;;;;;;5071790;28;20040;-70
2023/04/11 12:28:47;;;;;;;13.00;2.42;;;;;;;;;;5056502;28;20044;-70
2023/04/11 12:31:13;;;;;;;14.75;2.72;;;;;;;;;;5056223;28;20472;-70
2023/04/11 12:33:39;;;;;;;13.85;2.40;;;;;;;;;;5074153;28;20625;-70
2023/04/11 12:36:06;;;;;;;16.95;3.05;;;10.90;99.90;;;;;;5056631;28;20040;-70
2023/04/11 12:38:32;;;;;;;10.23;2.30;;;11.00;99.90;;;;;;5056033;28;20028;-70
2023/04/11 12:40:58;;;;;;;13.73;2.10;;;11.00;99.90;;;;;;5072485;28;20038;-70
2023/04/11 12:43:24;;;;;;;13.82;2.70;;;11.10;99.90;;;;;;5073462;28;20093;-69
2023/04/11 12:45:50;;;;;;;12.32;2.08;;;;;;;;;;5072377;28;20035;-70
2023/04/11 12:48:16;;;;;;;10.43;2.45;;;;;;;;;;5073283;28;20044;-70
2023/04/11 12:50:41;;;;;;;8.88;2.55;;;11.40;99.90;;;;;;5072767;28;20440;-70
2023/04/11 12:53:07;;;;;;;12.88;2.30;;;11.90;99.90;;;;;;5091069;28;20051;-70
2023/04/11 12:55:33;;;;;;;12.45;2.45;;;11.30;99.90;;;;;;5073779;28;20554;-69
2023/04/11 12:57:59;;;;;;;13.55;3.38;;;11.30;99.90;;;;;;5072985;28;20068;-68
2023/04/11 13:00:25;;;;;;;12.18;3.20;;;10.80;99.90;;;;;;5072936;28;20086;-70
2023/04/11 13:02:52;;;;;;;19.73;3.25;;;;;;;;;;5073635;28;20519;-70
2023/04/11 13:05:17;;;;;;;11.43;3.20;;;10.90;99.90;;;;;;5090239;28;20386;-69
2023/04/11 13:07:43;;;;;;;13.75;2.55;;;11.10;99.90;;;;;;5072548;28;20506;-68
2023/04/11 13:10:09;;;;;;;12.52;2.53;;;11.20;99.90;;;;;;5072263;28;20426;-67
2023/04/11 13:12:43;;;;;;;13.60;2.47;;;11.10;99.90;;;;;;5090479;28;20048;-68
2023/04/11 13:15:10;;;;;;;10.45;2.17;;;11.40;99.90;;;;;;5072468;28;20044;-67
2023/04/11 13:17:36;;;;;;;11.13;2.22;;;11.80;99.90;;;;;;5071808;28;20036;-71
2023/04/11 13:20:06;;;;;;;11.93;2.55;;;11.90;99.90;;;;;;5072807;28;20032;-70
2023/04/11 13:22:32;;;;;;;10.00;2.10;;;11.90;99.90;;;;;;5072121;28;20068;-70
2023/04/11 13:24:58;;;;;;;14.93;3.08;;;11.80;99.90;;;;;;5071197;28;20170;-70
2023/04/11 13:27:24;;;;;;;14.63;2.72;;;11.70;99.90;;;;;;5055412;28;20118;-68
2023/04/11 13:29:49;;;;;;;11.00;3.13;;;11.80;99.90;;;;;;5072270;28;20043;-71
2023/04/11 13:32:15;;;;;;;8.75;1.77;;;;;;;;;;5071567;28;20096;-71
2023/04/11 13:34:41;;;;;;;12.88;1.90;;;12.20;99.90;;;;;;5065987;28;20036;-70
2023/04/11 13:37:06;;;;;;;12.20;2.40;;;12.70;99.90;;;;;;5055730;28;20951;-70
2023/04/11 13:39:32;;;;;;;9.57;2.38;;;12.40;99.90;;;;;;5077123;28;20028;-68
2023/04/11 13:41:58;;;;;;;10.07;2.38;;;12.30;99.90;;;;;;5074913;28;20032;-68
2023/04/11 13:44:23;;;;;;;9.77;2.80;;;12.10;99.90;;;;;;5076810;28;20052;-70
2023/04/11 13:46:49;;;;;;;13.00;3.55;;;12.40;99.90;;;;;;5075652;28;20126;-70
2023/04/11 13:49:14;;;;;;;21.80;4.45;;;12.60;99.90;;;;;;5057998;28;20038;-70
2023/04/11 13:51:40;;;;;;;12.43;2.50;;;12.60;99.90;;;;;;5076130;28;20032;-70
2023/04/11 13:54:06;;;;;;;15.25;3.08;;;12.40;99.90;;;;;;5075550;28;20050;-71
2023/04/11 13:56:31;;;;;;;11.48;2.42;;;12.20;99.90;;;;;;5076301;28;20040;-71
2023/04/11 13:58:57;;;;;;;7.70;2.38;;;12.20;99.90;;;;;;5068528;28;20040;-70
2023/04/11 14:01:22;;;;;;;11.52;2.47;;;12.40;99.90;;;;;;5075795;28;20040;-70
2023/04/11 14:03:49;;;;;;;5.80;1.90;;;12.50;99.90;;;;;;5076443;28;20040;-71
2023/04/11 14:06:14;;;;;;;14.13;2.58;;;12.30;99.90;;;;;;5075396;28;20619;-71
2023/04/11 14:08:40;;;;;;;8.80;2.75;;;12.60;99.90;;;;;;5076151;28;20127;-71